THY6390 UHPP-PANC
Flight info
| Callsign | THY6390 |
|---|---|
| Flight time | 3h 50m |
| Altitude | 35000 |
| Route | TUPAN4L TUPAN B244 UK T564 RUSOR/N0482F350 B241 ENM DCT MCG TAGER9 |
| Aircraft | B77L/H-SDE1E2E3FGHIJ2J3J4J5M1RWXY/LB1D1 |
Departure
| Time | 2026-04-22 14:41 |
|---|---|
| Airport | Yelizovo Airport (UHPP) |
Arrival
| Time | 2026-04-22 18:31 |
|---|---|
| Airport | Ted Stevens Anchorage International Airport (PANC) |
| Time | Latitude | Longitude | Altitude | Speed | Heading |
|---|---|---|---|---|---|
| 2026-04-22 14:27 | 53.16877 | 158.42828 | 232 ft | 2 kts | 276° |
| 2026-04-22 14:27 | 53.16874 | 158.42855 | 230 ft | 2 kts | 291° |
| 2026-04-22 14:27 | 53.16865 | 158.42878 | 227 ft | 2 kts | 329° |
| 2026-04-22 14:28 | 53.16860 | 158.42883 | 227 ft | 0 kts | 330° |
| 2026-04-22 14:31 | 53.16862 | 158.42881 | 227 ft | 1 kts | 330° |
| 2026-04-22 14:31 | 53.16880 | 158.42863 | 227 ft | 4 kts | 329° |
| 2026-04-22 14:31 | 53.16914 | 158.42829 | 228 ft | 7 kts | 329° |
| 2026-04-22 14:31 | 53.16969 | 158.42793 | 229 ft | 10 kts | 346° |
| 2026-04-22 14:32 | 53.17033 | 158.42819 | 230 ft | 11 kts | 51° |
| 2026-04-22 14:32 | 53.17074 | 158.42938 | 230 ft | 13 kts | 60° |
| 2026-04-22 14:32 | 53.17124 | 158.43078 | 231 ft | 15 kts | 59° |
| 2026-04-22 14:32 | 53.17181 | 158.43241 | 230 ft | 17 kts | 60° |
| 2026-04-22 14:33 | 53.17244 | 158.43423 | 230 ft | 19 kts | 59° |
| 2026-04-22 14:33 | 53.17313 | 158.43620 | 232 ft | 21 kts | 60° |
| 2026-04-22 14:33 | 53.17388 | 158.43833 | 135 ft | 22 kts | 59° |
| 2026-04-22 14:33 | 53.17465 | 158.44062 | 122 ft | 24 kts | 66° |
| 2026-04-22 14:34 | 53.17516 | 158.44265 | 124 ft | 15 kts | 68° |
| 2026-04-22 14:34 | 53.17472 | 158.44383 | 125 ft | 15 kts | 154° |
| 2026-04-22 14:34 | 53.17372 | 158.44454 | 127 ft | 17 kts | 157° |
| 2026-04-22 14:34 | 53.17258 | 158.44533 | 124 ft | 19 kts | 158° |
| 2026-04-22 14:35 | 53.17133 | 158.44620 | 122 ft | 21 kts | 157° |
| 2026-04-22 14:35 | 53.16995 | 158.44715 | 123 ft | 22 kts | 157° |
| 2026-04-22 14:35 | 53.16847 | 158.44818 | 122 ft | 24 kts | 157° |
| 2026-04-22 14:35 | 53.16688 | 158.44928 | 123 ft | 25 kts | 157° |
| 2026-04-22 14:36 | 53.16522 | 158.45043 | 126 ft | 27 kts | 157° |
| 2026-04-22 14:36 | 53.16347 | 158.45164 | 122 ft | 27 kts | 157° |
| 2026-04-22 14:36 | 53.16173 | 158.45284 | 123 ft | 27 kts | 157° |
| 2026-04-22 14:36 | 53.16069 | 158.45382 | 124 ft | 14 kts | 112° |
| 2026-04-22 14:37 | 53.16095 | 158.45541 | 126 ft | 14 kts | 66° |
| 2026-04-22 14:37 | 53.16058 | 158.45670 | 126 ft | 14 kts | 155° |
| 2026-04-22 14:37 | 53.15965 | 158.45735 | 127 ft | 14 kts | 158° |
| 2026-04-22 14:37 | 53.15873 | 158.45799 | 125 ft | 14 kts | 157° |
| 2026-04-22 14:38 | 53.15779 | 158.45864 | 128 ft | 14 kts | 158° |
| 2026-04-22 14:38 | 53.15683 | 158.45915 | 125 ft | 15 kts | 179° |
| 2026-04-22 14:38 | 53.15583 | 158.45915 | 126 ft | 12 kts | 169° |
| 2026-04-22 14:38 | 53.15566 | 158.46000 | 126 ft | 9 kts | 31° |
| 2026-04-22 14:39 | 53.15628 | 158.45969 | 126 ft | 9 kts | 338° |
| 2026-04-22 14:39 | 53.15640 | 158.45961 | 127 ft | 0 kts | 338° |
| 2026-04-22 14:40 | 53.15800 | 158.45851 | 129 ft | 53 kts | 337° |
| 2026-04-22 14:40 | 53.16363 | 158.45459 | 127 ft | 119 kts | 337° |
| 2026-04-22 14:40 | 53.17293 | 158.44817 | 128 ft | 168 kts | 338° |
| 2026-04-22 14:40 | 53.18418 | 158.44038 | 506 ft | 176 kts | 336° |
| 2026-04-22 14:41 | 53.19561 | 158.43141 | 935 ft | 185 kts | 334° |
| 2026-04-22 14:41 | 53.20722 | 158.42237 | 1555 ft | 184 kts | 338° |
| 2026-04-22 14:41 | 53.21948 | 158.41419 | 2038 ft | 198 kts | 338° |
| 2026-04-22 14:41 | 53.23312 | 158.40507 | 2253 ft | 223 kts | 338° |
| 2026-04-22 14:42 | 53.24831 | 158.39490 | 2573 ft | 245 kts | 338° |
| 2026-04-22 14:42 | 53.26449 | 158.38398 | 3172 ft | 256 kts | 338° |
| 2026-04-22 14:42 | 53.28096 | 158.37267 | 4015 ft | 257 kts | 337° |
| 2026-04-22 14:42 | 53.29747 | 158.36116 | 4920 ft | 255 kts | 338° |
| 2026-04-22 14:43 | 53.31392 | 158.34978 | 5755 ft | 257 kts | 338° |
| 2026-04-22 14:43 | 53.33059 | 158.33819 | 6482 ft | 263 kts | 339° |
| 2026-04-22 14:43 | 53.34763 | 158.32650 | 7157 ft | 268 kts | 339° |
| 2026-04-22 14:43 | 53.36548 | 158.31865 | 7766 ft | 267 kts | 2° |
| 2026-04-22 14:44 | 53.38333 | 158.32639 | 8415 ft | 268 kts | 32° |
| 2026-04-22 14:44 | 53.39692 | 158.34747 | 9154 ft | 269 kts | 53° |
| 2026-04-22 14:44 | 53.40713 | 158.37389 | 9854 ft | 272 kts | 58° |
| 2026-04-22 14:44 | 53.41679 | 158.40111 | 10554 ft | 274 kts | 58° |
| 2026-04-22 14:45 | 53.42669 | 158.42985 | 10731 ft | 299 kts | 59° |
| 2026-04-22 14:45 | 53.43767 | 158.46189 | 10915 ft | 324 kts | 59° |
| 2026-04-22 14:45 | 53.44934 | 158.49579 | 11148 ft | 346 kts | 59° |
| 2026-04-22 14:45 | 53.46165 | 158.53137 | 11733 ft | 358 kts | 59° |
| 2026-04-22 14:46 | 53.47432 | 158.56792 | 12493 ft | 365 kts | 59° |
| 2026-04-22 14:46 | 53.48719 | 158.60500 | 13396 ft | 370 kts | 59° |
| 2026-04-22 14:46 | 53.50022 | 158.64249 | 14226 ft | 374 kts | 58° |
| 2026-04-22 14:46 | 53.51337 | 158.68039 | 15043 ft | 377 kts | 58° |
| 2026-04-22 14:47 | 53.52670 | 158.71881 | 15853 ft | 382 kts | 58° |
| 2026-04-22 14:47 | 53.54010 | 158.75747 | 16621 ft | 386 kts | 58° |
| 2026-04-22 14:47 | 53.55373 | 158.79690 | 17389 ft | 390 kts | 58° |
| 2026-04-22 14:47 | 53.56727 | 158.83608 | 18153 ft | 395 kts | 58° |
| 2026-04-22 14:48 | 53.58140 | 158.87707 | 18775 ft | 401 kts | 58° |
| 2026-04-22 14:48 | 53.59540 | 158.91776 | 19470 ft | 403 kts | 58° |
| 2026-04-22 14:48 | 53.60948 | 158.95871 | 20194 ft | 404 kts | 58° |
| 2026-04-22 14:48 | 53.62360 | 158.99986 | 20884 ft | 407 kts | 58° |
| 2026-04-22 14:49 | 53.63854 | 159.04036 | 21445 ft | 409 kts | 51° |
| 2026-04-22 14:49 | 53.65916 | 159.07321 | 21921 ft | 408 kts | 36° |
| 2026-04-22 14:49 | 53.68268 | 159.10196 | 22420 ft | 415 kts | 36° |
| 2026-04-22 14:49 | 53.70556 | 159.13078 | 23076 ft | 417 kts | 37° |
| 2026-04-22 14:50 | 53.72857 | 159.16036 | 23744 ft | 419 kts | 37° |
| 2026-04-22 14:50 | 53.75216 | 159.19104 | 24312 ft | 422 kts | 37° |
| 2026-04-22 14:50 | 53.77545 | 159.22154 | 24803 ft | 425 kts | 37° |
| 2026-04-22 14:50 | 53.79889 | 159.25233 | 25329 ft | 428 kts | 37° |
| 2026-04-22 14:51 | 53.82216 | 159.28298 | 25847 ft | 430 kts | 38° |
| 2026-04-22 14:51 | 53.84610 | 159.31455 | 26387 ft | 433 kts | 38° |
| 2026-04-22 14:51 | 53.86999 | 159.34608 | 26900 ft | 436 kts | 38° |
| 2026-04-22 14:51 | 53.88619 | 159.36749 | 27233 ft | 438 kts | 38° |
| 2026-04-22 14:52 | 53.91065 | 159.39985 | 27718 ft | 441 kts | 38° |
| 2026-04-22 14:52 | 53.93446 | 159.43140 | 28182 ft | 444 kts | 38° |
| 2026-04-22 14:52 | 53.95969 | 159.46487 | 28655 ft | 446 kts | 38° |
| 2026-04-22 14:52 | 53.98407 | 159.49728 | 29097 ft | 449 kts | 38° |
| 2026-04-22 14:53 | 54.01022 | 159.53208 | 29562 ft | 452 kts | 38° |
| 2026-04-22 14:53 | 54.03500 | 159.56512 | 29954 ft | 454 kts | 38° |
| 2026-04-22 14:53 | 54.05995 | 159.59843 | 30365 ft | 454 kts | 38° |
| 2026-04-22 14:53 | 54.08481 | 159.63168 | 30771 ft | 454 kts | 38° |
| 2026-04-22 14:54 | 54.10966 | 159.66497 | 31148 ft | 455 kts | 38° |
| 2026-04-22 14:54 | 54.13453 | 159.69835 | 31514 ft | 455 kts | 38° |
| 2026-04-22 14:54 | 54.15950 | 159.73190 | 31880 ft | 456 kts | 38° |
| 2026-04-22 14:54 | 54.18476 | 159.76589 | 32266 ft | 457 kts | 38° |
| 2026-04-22 14:55 | 54.20972 | 159.79952 | 32635 ft | 457 kts | 38° |
| 2026-04-22 14:55 | 54.23468 | 159.83313 | 32994 ft | 457 kts | 38° |
| 2026-04-22 14:55 | 54.25969 | 159.86674 | 33345 ft | 458 kts | 37° |
| 2026-04-22 14:55 | 54.28475 | 159.90042 | 33672 ft | 458 kts | 37° |
| 2026-04-22 14:56 | 54.31039 | 159.93492 | 34012 ft | 459 kts | 37° |
| 2026-04-22 14:56 | 54.33549 | 159.96877 | 34228 ft | 461 kts | 37° |
| 2026-04-22 14:56 | 54.36082 | 160.00299 | 34472 ft | 462 kts | 37° |
| 2026-04-22 14:56 | 54.38604 | 160.03714 | 34710 ft | 463 kts | 38° |
| 2026-04-22 14:57 | 54.41133 | 160.07143 | 34913 ft | 464 kts | 38° |
| 2026-04-22 14:57 | 54.43678 | 160.10601 | 34944 ft | 467 kts | 38° |
| 2026-04-22 14:57 | 54.48763 | 160.17526 | 34969 ft | 464 kts | 38° |
| 2026-04-22 14:58 | 54.53768 | 160.24365 | 34968 ft | 460 kts | 38° |
| 2026-04-22 14:58 | 54.58799 | 160.31261 | 34979 ft | 459 kts | 38° |
| 2026-04-22 14:59 | 54.63815 | 160.38158 | 34977 ft | 460 kts | 38° |
| 2026-04-22 14:59 | 54.68803 | 160.45040 | 34975 ft | 461 kts | 38° |
| 2026-04-22 15:00 | 54.73824 | 160.51990 | 34974 ft | 461 kts | 38° |
| 2026-04-22 15:00 | 54.78840 | 160.58957 | 34973 ft | 463 kts | 38° |
| 2026-04-22 15:01 | 54.83863 | 160.65955 | 34987 ft | 463 kts | 38° |
| 2026-04-22 15:01 | 54.88892 | 160.72983 | 34985 ft | 465 kts | 38° |
| 2026-04-22 15:02 | 54.93933 | 160.80057 | 34990 ft | 466 kts | 38° |
| 2026-04-22 15:02 | 54.98981 | 160.87168 | 34989 ft | 466 kts | 38° |
| 2026-04-22 15:03 | 55.04026 | 160.94301 | 34996 ft | 466 kts | 38° |
| 2026-04-22 15:03 | 55.09031 | 161.01397 | 34996 ft | 466 kts | 38° |
| 2026-04-22 15:04 | 55.14273 | 161.08858 | 35001 ft | 467 kts | 38° |
| 2026-04-22 15:04 | 55.18456 | 161.14828 | 35010 ft | 466 kts | 38° |
| 2026-04-22 15:05 | 55.23551 | 161.22125 | 35009 ft | 467 kts | 38° |
| 2026-04-22 15:05 | 55.28540 | 161.29290 | 35012 ft | 467 kts | 38° |
| 2026-04-22 15:06 | 55.33562 | 161.36524 | 35009 ft | 467 kts | 38° |
| 2026-04-22 15:06 | 55.38579 | 161.43773 | 35022 ft | 467 kts | 39° |
| 2026-04-22 15:07 | 55.43629 | 161.51096 | 35003 ft | 467 kts | 39° |
| 2026-04-22 15:07 | 55.48640 | 161.58388 | 35005 ft | 467 kts | 39° |
| 2026-04-22 15:08 | 55.53618 | 161.65657 | 35002 ft | 467 kts | 39° |
| 2026-04-22 15:08 | 55.58618 | 161.72982 | 35000 ft | 466 kts | 39° |
| 2026-04-22 15:09 | 55.63610 | 161.80322 | 35001 ft | 466 kts | 39° |
| 2026-04-22 15:09 | 55.68588 | 161.87667 | 35007 ft | 466 kts | 39° |
| 2026-04-22 15:10 | 55.73569 | 161.95040 | 35001 ft | 466 kts | 39° |
| 2026-04-22 15:10 | 55.78571 | 162.02471 | 34996 ft | 465 kts | 39° |
| 2026-04-22 15:11 | 55.83531 | 162.09865 | 34991 ft | 465 kts | 39° |
| 2026-04-22 15:11 | 55.88494 | 162.17285 | 34994 ft | 465 kts | 39° |
| 2026-04-22 15:12 | 55.93441 | 162.24719 | 35002 ft | 467 kts | 39° |
| 2026-04-22 15:12 | 55.98431 | 162.32251 | 34991 ft | 468 kts | 39° |
| 2026-04-22 15:13 | 56.03407 | 162.39788 | 34994 ft | 469 kts | 39° |
| 2026-04-22 15:13 | 56.08360 | 162.47315 | 34989 ft | 470 kts | 39° |
| 2026-04-22 15:14 | 56.13339 | 162.54909 | 34989 ft | 470 kts | 39° |
| 2026-04-22 15:14 | 56.18372 | 162.62609 | 34995 ft | 470 kts | 39° |
| 2026-04-22 15:15 | 56.23097 | 162.70896 | 34991 ft | 472 kts | 48° |
| 2026-04-22 15:15 | 56.26952 | 162.80467 | 34998 ft | 473 kts | 54° |
| 2026-04-22 15:16 | 56.30625 | 162.90310 | 35002 ft | 474 kts | 54° |
| 2026-04-22 15:16 | 56.34319 | 163.00172 | 34986 ft | 474 kts | 54° |
| 2026-04-22 15:17 | 56.38025 | 163.10023 | 34990 ft | 474 kts | 54° |
| 2026-04-22 15:17 | 56.41733 | 163.19896 | 34988 ft | 474 kts | 54° |
| 2026-04-22 15:18 | 56.45408 | 163.29725 | 34986 ft | 474 kts | 54° |
| 2026-04-22 15:18 | 56.49091 | 163.39618 | 34983 ft | 474 kts | 54° |
| 2026-04-22 15:19 | 56.52782 | 163.49573 | 34983 ft | 474 kts | 54° |
| 2026-04-22 15:19 | 56.56449 | 163.59508 | 34990 ft | 474 kts | 54° |
| 2026-04-22 15:20 | 56.60132 | 163.69524 | 34973 ft | 474 kts | 54° |
| 2026-04-22 15:20 | 56.63788 | 163.79503 | 34971 ft | 474 kts | 54° |
| 2026-04-22 15:21 | 56.67438 | 163.89508 | 34976 ft | 475 kts | 54° |
| 2026-04-22 15:21 | 56.71084 | 163.99535 | 34969 ft | 475 kts | 54° |
| 2026-04-22 15:22 | 56.74728 | 164.09599 | 34982 ft | 476 kts | 54° |
| 2026-04-22 15:22 | 56.78358 | 164.19665 | 34961 ft | 476 kts | 54° |
| 2026-04-22 15:23 | 56.81990 | 164.29783 | 34961 ft | 477 kts | 55° |
| 2026-04-22 15:23 | 56.85622 | 164.39943 | 34970 ft | 477 kts | 55° |
| 2026-04-22 15:24 | 56.89243 | 164.50111 | 34960 ft | 477 kts | 54° |
| 2026-04-22 15:24 | 56.92868 | 164.60333 | 34971 ft | 477 kts | 54° |
| 2026-04-22 15:25 | 56.96467 | 164.70535 | 34959 ft | 478 kts | 54° |
| 2026-04-22 15:25 | 57.00072 | 164.80788 | 34952 ft | 478 kts | 55° |
| 2026-04-22 15:26 | 57.03670 | 164.91064 | 34960 ft | 478 kts | 55° |
| 2026-04-22 15:26 | 57.07265 | 165.01382 | 34962 ft | 479 kts | 55° |
| 2026-04-22 15:27 | 57.10849 | 165.11703 | 34967 ft | 479 kts | 56° |
| 2026-04-22 15:27 | 57.14429 | 165.22072 | 34953 ft | 480 kts | 56° |
| 2026-04-22 15:28 | 57.18031 | 165.32539 | 34962 ft | 481 kts | 56° |
| 2026-04-22 15:28 | 57.21607 | 165.42979 | 34957 ft | 481 kts | 55° |
| 2026-04-22 15:29 | 57.25173 | 165.53433 | 34950 ft | 481 kts | 55° |
| 2026-04-22 15:30 | 57.29932 | 165.67470 | 34953 ft | 481 kts | 54° |
| 2026-04-22 15:30 | 57.33486 | 165.77984 | 34948 ft | 482 kts | 55° |
| 2026-04-22 15:31 | 57.37031 | 165.88535 | 34930 ft | 482 kts | 57° |
| 2026-04-22 15:31 | 57.40559 | 165.99085 | 34951 ft | 482 kts | 56° |
| 2026-04-22 15:32 | 57.44089 | 166.09661 | 34945 ft | 482 kts | 56° |
| 2026-04-22 15:32 | 57.47603 | 166.20269 | 34943 ft | 482 kts | 56° |
| 2026-04-22 15:33 | 57.51114 | 166.30902 | 34953 ft | 483 kts | 56° |
| 2026-04-22 15:33 | 57.54615 | 166.41565 | 34975 ft | 483 kts | 55° |
| 2026-04-22 15:34 | 57.58120 | 166.52252 | 34932 ft | 484 kts | 56° |
| 2026-04-22 15:34 | 57.61618 | 166.62990 | 34936 ft | 485 kts | 57° |
| 2026-04-22 15:35 | 57.65169 | 166.73949 | 34937 ft | 485 kts | 56° |
| 2026-04-22 15:35 | 57.68651 | 166.84757 | 34935 ft | 485 kts | 57° |
| 2026-04-22 15:36 | 57.72137 | 166.95596 | 34926 ft | 486 kts | 57° |
| 2026-04-22 15:36 | 57.75601 | 167.06444 | 34922 ft | 486 kts | 57° |
| 2026-04-22 15:37 | 57.79079 | 167.17349 | 34939 ft | 486 kts | 58° |
| 2026-04-22 15:37 | 57.82530 | 167.28237 | 34915 ft | 487 kts | 57° |
| 2026-04-22 15:38 | 57.85993 | 167.39212 | 34926 ft | 487 kts | 56° |
| 2026-04-22 15:38 | 57.91186 | 167.55780 | 34925 ft | 487 kts | 58° |
| 2026-04-22 15:39 | 57.94619 | 167.66788 | 34908 ft | 488 kts | 58° |
| 2026-04-22 15:39 | 57.98042 | 167.77813 | 34924 ft | 488 kts | 57° |
| 2026-04-22 15:40 | 58.01456 | 167.88858 | 34923 ft | 488 kts | 57° |
| 2026-04-22 15:40 | 58.04864 | 167.99958 | 34923 ft | 488 kts | 58° |
| 2026-04-22 15:41 | 58.08263 | 168.11059 | 34920 ft | 488 kts | 58° |
| 2026-04-22 15:41 | 58.11651 | 168.22193 | 34916 ft | 488 kts | 58° |
| 2026-04-22 15:42 | 58.15031 | 168.33335 | 34915 ft | 488 kts | 58° |
| 2026-04-22 15:42 | 58.18402 | 168.44510 | 34916 ft | 488 kts | 59° |
| 2026-04-22 15:43 | 58.21756 | 168.55682 | 34911 ft | 488 kts | 58° |
| 2026-04-22 15:43 | 58.25106 | 168.66903 | 34906 ft | 488 kts | 58° |
| 2026-04-22 15:44 | 58.28449 | 168.78135 | 34906 ft | 488 kts | 58° |
| 2026-04-22 15:44 | 58.31779 | 168.89390 | 34905 ft | 488 kts | 59° |
| 2026-04-22 15:45 | 58.35101 | 169.00683 | 34910 ft | 488 kts | 59° |
| 2026-04-22 15:45 | 58.38407 | 169.11979 | 34903 ft | 488 kts | 59° |
| 2026-04-22 15:46 | 58.41718 | 169.23312 | 34905 ft | 489 kts | 59° |
| 2026-04-22 15:46 | 58.44990 | 169.34594 | 34894 ft | 489 kts | 59° |
| 2026-04-22 15:47 | 58.48274 | 169.45962 | 34895 ft | 489 kts | 60° |
| 2026-04-22 15:47 | 58.51549 | 169.57362 | 34895 ft | 489 kts | 59° |
| 2026-04-22 15:48 | 58.54812 | 169.68784 | 34898 ft | 489 kts | 60° |
| 2026-04-22 15:48 | 58.58070 | 169.80228 | 34884 ft | 489 kts | 60° |
| 2026-04-22 15:49 | 58.61316 | 169.91700 | 34883 ft | 489 kts | 60° |
| 2026-04-22 15:49 | 58.64554 | 170.03195 | 34882 ft | 490 kts | 60° |
| 2026-04-22 15:50 | 58.67791 | 170.14740 | 34890 ft | 490 kts | 61° |
| 2026-04-22 15:50 | 58.71008 | 170.26282 | 34877 ft | 490 kts | 60° |
| 2026-04-22 15:51 | 58.74222 | 170.37875 | 34876 ft | 491 kts | 60° |
| 2026-04-22 15:51 | 58.77427 | 170.49484 | 34873 ft | 490 kts | 61° |
| 2026-04-22 15:52 | 58.80620 | 170.61112 | 34871 ft | 491 kts | 61° |
| 2026-04-22 15:52 | 58.83807 | 170.72778 | 34854 ft | 491 kts | 62° |
| 2026-04-22 15:53 | 58.86982 | 170.84462 | 34857 ft | 491 kts | 61° |
| 2026-04-22 15:53 | 58.90146 | 170.96165 | 34847 ft | 491 kts | 61° |
| 2026-04-22 15:54 | 58.93303 | 171.07899 | 34846 ft | 491 kts | 62° |
| 2026-04-22 15:54 | 58.96444 | 171.19636 | 34847 ft | 490 kts | 62° |
| 2026-04-22 15:55 | 58.99572 | 171.31386 | 34846 ft | 490 kts | 62° |
| 2026-04-22 15:55 | 59.02683 | 171.43137 | 34839 ft | 489 kts | 62° |
| 2026-04-22 15:56 | 59.05787 | 171.54917 | 34836 ft | 489 kts | 62° |
| 2026-04-22 15:56 | 59.08370 | 171.64773 | 34821 ft | 489 kts | 62° |
| 2026-04-22 15:57 | 59.11462 | 171.76623 | 34841 ft | 488 kts | 63° |
| 2026-04-22 15:57 | 59.14522 | 171.88413 | 34820 ft | 488 kts | 63° |
| 2026-04-22 15:58 | 59.17521 | 172.00032 | 34824 ft | 488 kts | 63° |
| 2026-04-22 15:58 | 59.20647 | 172.12205 | 34816 ft | 487 kts | 63° |
| 2026-04-22 15:59 | 59.23671 | 172.24043 | 34812 ft | 488 kts | 63° |
| 2026-04-22 15:59 | 59.26687 | 172.35914 | 34810 ft | 487 kts | 63° |
| 2026-04-22 16:00 | 59.29713 | 172.47895 | 34823 ft | 487 kts | 63° |
| 2026-04-22 16:00 | 59.32711 | 172.59821 | 34804 ft | 486 kts | 64° |
| 2026-04-22 16:01 | 59.35689 | 172.71735 | 34792 ft | 486 kts | 64° |
| 2026-04-22 16:01 | 59.38635 | 172.83585 | 34796 ft | 486 kts | 64° |
| 2026-04-22 16:02 | 59.41598 | 172.95566 | 34814 ft | 485 kts | 65° |
| 2026-04-22 16:02 | 59.44567 | 173.07641 | 34800 ft | 484 kts | 64° |
| 2026-04-22 16:03 | 59.47504 | 173.19648 | 34783 ft | 483 kts | 65° |
| 2026-04-22 16:03 | 59.50407 | 173.31585 | 34782 ft | 483 kts | 65° |
| 2026-04-22 16:04 | 59.53299 | 173.43541 | 34778 ft | 483 kts | 65° |
| 2026-04-22 16:04 | 59.56170 | 173.55471 | 34782 ft | 483 kts | 65° |
| 2026-04-22 16:05 | 59.59037 | 173.67453 | 34785 ft | 482 kts | 65° |
| 2026-04-22 16:05 | 59.61886 | 173.79430 | 34784 ft | 481 kts | 65° |
| 2026-04-22 16:06 | 59.64724 | 173.91419 | 34784 ft | 481 kts | 65° |
| 2026-04-22 16:06 | 59.67546 | 174.03411 | 34769 ft | 480 kts | 65° |
| 2026-04-22 16:07 | 59.70337 | 174.15340 | 34784 ft | 480 kts | 65° |
| 2026-04-22 16:07 | 59.73154 | 174.27447 | 34778 ft | 480 kts | 65° |
| 2026-04-22 16:08 | 59.75936 | 174.39468 | 34779 ft | 480 kts | 66° |
| 2026-04-22 16:08 | 59.78704 | 174.51493 | 34759 ft | 481 kts | 66° |
| 2026-04-22 16:09 | 59.81493 | 174.63683 | 34768 ft | 482 kts | 66° |
| 2026-04-22 16:09 | 59.84235 | 174.75736 | 34767 ft | 482 kts | 66° |
| 2026-04-22 16:10 | 59.86984 | 174.87882 | 34764 ft | 479 kts | 66° |
| 2026-04-22 16:10 | 59.89704 | 174.99983 | 34758 ft | 477 kts | 67° |
| 2026-04-22 16:11 | 59.92416 | 175.12102 | 34759 ft | 474 kts | 67° |
| 2026-04-22 16:11 | 59.95145 | 175.24378 | 34744 ft | 473 kts | 66° |
| 2026-04-22 16:12 | 59.97802 | 175.36396 | 34765 ft | 473 kts | 67° |
| 2026-04-22 16:12 | 60.00453 | 175.48460 | 34770 ft | 472 kts | 67° |
| 2026-04-22 16:13 | 60.03079 | 175.60473 | 34753 ft | 471 kts | 67° |
| 2026-04-22 16:13 | 60.05269 | 175.70547 | 34750 ft | 471 kts | 67° |
| 2026-04-22 16:14 | 60.07872 | 175.82583 | 34741 ft | 471 kts | 67° |
| 2026-04-22 16:14 | 60.10463 | 175.94637 | 34741 ft | 471 kts | 67° |
| 2026-04-22 16:15 | 60.13016 | 176.06578 | 34744 ft | 472 kts | 68° |
| 2026-04-22 16:15 | 60.15641 | 176.18925 | 34744 ft | 471 kts | 68° |
| 2026-04-22 16:16 | 60.18218 | 176.31129 | 34730 ft | 471 kts | 68° |
| 2026-04-22 16:16 | 60.20765 | 176.43258 | 34734 ft | 471 kts | 68° |
| 2026-04-22 16:17 | 60.23285 | 176.55322 | 34726 ft | 470 kts | 68° |
| 2026-04-22 16:17 | 60.25824 | 176.67561 | 34740 ft | 470 kts | 68° |
| 2026-04-22 16:18 | 60.28311 | 176.79618 | 34729 ft | 465 kts | 68° |
| 2026-04-22 16:18 | 60.30774 | 176.91622 | 34723 ft | 461 kts | 68° |
| 2026-04-22 16:19 | 60.33199 | 177.03517 | 34717 ft | 464 kts | 68° |
| 2026-04-22 16:19 | 60.35693 | 177.15822 | 34705 ft | 468 kts | 68° |
| 2026-04-22 16:20 | 60.38135 | 177.27945 | 34726 ft | 463 kts | 68° |
| 2026-04-22 16:20 | 60.40535 | 177.39927 | 34725 ft | 460 kts | 68° |
| 2026-04-22 16:21 | 60.42927 | 177.51950 | 34726 ft | 460 kts | 68° |
| 2026-04-22 16:21 | 60.45293 | 177.63905 | 34701 ft | 458 kts | 69° |
| 2026-04-22 16:22 | 60.48872 | 177.82131 | 34705 ft | 467 kts | 69° |
| 2026-04-22 16:23 | 60.52428 | 178.00398 | 34724 ft | 460 kts | 69° |
| 2026-04-22 16:23 | 60.54760 | 178.12481 | 34712 ft | 458 kts | 69° |
| 2026-04-22 16:24 | 60.58204 | 178.30455 | 34695 ft | 453 kts | 69° |
| 2026-04-22 16:25 | 60.60489 | 178.42463 | 34687 ft | 459 kts | 69° |
| 2026-04-22 16:25 | 60.63911 | 178.60603 | 34696 ft | 453 kts | 69° |
| 2026-04-22 16:26 | 60.66162 | 178.72624 | 34700 ft | 456 kts | 69° |
| 2026-04-22 16:26 | 60.68437 | 178.84856 | 34703 ft | 453 kts | 69° |
| 2026-04-22 16:27 | 60.70647 | 178.96802 | 34696 ft | 449 kts | 69° |
| 2026-04-22 16:27 | 60.72858 | 179.08833 | 34702 ft | 455 kts | 69° |
| 2026-04-22 16:28 | 60.75070 | 179.20938 | 34669 ft | 453 kts | 70° |
| 2026-04-22 16:28 | 60.77263 | 179.33023 | 34693 ft | 455 kts | 70° |
| 2026-04-22 16:29 | 60.79448 | 179.45126 | 34687 ft | 450 kts | 70° |
| 2026-04-22 16:29 | 60.81575 | 179.56996 | 34667 ft | 440 kts | 70° |
| 2026-04-22 16:30 | 60.83689 | 179.68882 | 34690 ft | 449 kts | 71° |
| 2026-04-22 16:30 | 60.85824 | 179.80945 | 34683 ft | 449 kts | 71° |
| 2026-04-22 16:31 | 60.87940 | 179.92972 | 34684 ft | 443 kts | 71° |
| 2026-04-22 16:31 | 60.90045 | -179.94975 | 34694 ft | 452 kts | 71° |
| 2026-04-22 16:32 | 60.92152 | -179.82835 | 34693 ft | 454 kts | 71° |
| 2026-04-22 16:32 | 60.94258 | -179.70626 | 34675 ft | 453 kts | 71° |
| 2026-04-22 16:33 | 60.96368 | -179.58311 | 34689 ft | 453 kts | 71° |
| 2026-04-22 16:33 | 60.98436 | -179.46161 | 34698 ft | 451 kts | 71° |
| 2026-04-22 16:34 | 61.00493 | -179.33994 | 34689 ft | 446 kts | 72° |
| 2026-04-22 16:34 | 61.02515 | -179.21950 | 34680 ft | 441 kts | 72° |
| 2026-04-22 16:35 | 61.04521 | -179.09927 | 34656 ft | 446 kts | 71° |
| 2026-04-22 16:35 | 61.06540 | -178.97744 | 34674 ft | 450 kts | 72° |
| 2026-04-22 16:36 | 61.08581 | -178.85341 | 34662 ft | 455 kts | 72° |
| 2026-04-22 16:36 | 61.10596 | -178.73022 | 34681 ft | 450 kts | 72° |
| 2026-04-22 16:37 | 61.12579 | -178.60814 | 34659 ft | 445 kts | 73° |
| 2026-04-22 16:37 | 61.14523 | -178.48760 | 34675 ft | 440 kts | 73° |
| 2026-04-22 16:38 | 61.16459 | -178.36669 | 34666 ft | 445 kts | 73° |
| 2026-04-22 16:38 | 61.18414 | -178.24382 | 34663 ft | 451 kts | 73° |
| 2026-04-22 16:39 | 61.20376 | -178.11970 | 34652 ft | 454 kts | 73° |
| 2026-04-22 16:39 | 61.22329 | -177.99533 | 34669 ft | 449 kts | 73° |
| 2026-04-22 16:40 | 61.24205 | -177.89474 | 34660 ft | 445 kts | 66° |
| 2026-04-22 16:41 | 61.28522 | -177.72352 | 34659 ft | 447 kts | 65° |
| 2026-04-22 16:41 | 61.31429 | -177.60727 | 34644 ft | 452 kts | 66° |
| 2026-04-22 16:42 | 61.34320 | -177.49054 | 34650 ft | 454 kts | 65° |
| 2026-04-22 16:42 | 61.37187 | -177.37405 | 34646 ft | 450 kts | 65° |
| 2026-04-22 16:43 | 61.40067 | -177.25651 | 34656 ft | 452 kts | 65° |
| 2026-04-22 16:43 | 61.42944 | -177.13827 | 34659 ft | 456 kts | 66° |
| 2026-04-22 16:44 | 61.45796 | -177.02026 | 34655 ft | 457 kts | 68° |
| 2026-04-22 16:44 | 61.48664 | -176.90123 | 34634 ft | 454 kts | 67° |
| 2026-04-22 16:45 | 61.51468 | -176.78405 | 34629 ft | 447 kts | 66° |
| 2026-04-22 16:45 | 61.54245 | -176.66748 | 34662 ft | 449 kts | 66° |
| 2026-04-22 16:46 | 61.57069 | -176.54837 | 34655 ft | 456 kts | 67° |
| 2026-04-22 16:46 | 61.59906 | -176.42784 | 34628 ft | 461 kts | 68° |
| 2026-04-22 16:47 | 61.62731 | -176.30730 | 34626 ft | 459 kts | 68° |
| 2026-04-22 16:47 | 61.64601 | -176.22719 | 34651 ft | 456 kts | 69° |
| 2026-04-22 16:48 | 61.68146 | -176.07416 | 34670 ft | 455 kts | 68° |
| 2026-04-22 16:48 | 61.70966 | -175.95193 | 34645 ft | 458 kts | 67° |
| 2026-04-22 16:49 | 61.73747 | -175.83062 | 34645 ft | 461 kts | 69° |
| 2026-04-22 16:49 | 61.76522 | -175.70886 | 34654 ft | 459 kts | 69° |
| 2026-04-22 16:50 | 61.79269 | -175.58764 | 34639 ft | 460 kts | 68° |
| 2026-04-22 16:50 | 61.82048 | -175.46405 | 34662 ft | 462 kts | 69° |
| 2026-04-22 16:51 | 61.84807 | -175.34085 | 34650 ft | 463 kts | 69° |
| 2026-04-22 16:51 | 61.87555 | -175.21752 | 34644 ft | 462 kts | 69° |
| 2026-04-22 16:52 | 61.90272 | -175.09499 | 34633 ft | 457 kts | 69° |
| 2026-04-22 16:52 | 61.92958 | -174.97298 | 34630 ft | 456 kts | 69° |
| 2026-04-22 16:53 | 61.95652 | -174.84965 | 34646 ft | 463 kts | 69° |
| 2026-04-22 16:53 | 61.98387 | -174.72380 | 34631 ft | 467 kts | 71° |
| 2026-04-22 16:54 | 62.01096 | -174.59862 | 34619 ft | 462 kts | 70° |
| 2026-04-22 16:54 | 62.03756 | -174.47492 | 34620 ft | 458 kts | 69° |
| 2026-04-22 16:55 | 62.06423 | -174.35007 | 34652 ft | 462 kts | 71° |
| 2026-04-22 16:55 | 62.09091 | -174.22437 | 34638 ft | 465 kts | 70° |
| 2026-04-22 16:56 | 62.11763 | -174.09786 | 34636 ft | 467 kts | 70° |
| 2026-04-22 16:56 | 62.14387 | -173.97278 | 34634 ft | 468 kts | 70° |
| 2026-04-22 16:57 | 62.17087 | -173.84342 | 34634 ft | 468 kts | 71° |
| 2026-04-22 16:57 | 62.19726 | -173.71610 | 34644 ft | 468 kts | 71° |
| 2026-04-22 16:58 | 62.21908 | -173.61020 | 34648 ft | 467 kts | 71° |
| 2026-04-22 16:58 | 62.24975 | -173.46049 | 34628 ft | 466 kts | 71° |
| 2026-04-22 16:59 | 62.27568 | -173.33303 | 34653 ft | 466 kts | 72° |
| 2026-04-22 16:59 | 62.30147 | -173.20538 | 34646 ft | 466 kts | 72° |
| 2026-04-22 17:00 | 62.32724 | -173.07721 | 34646 ft | 467 kts | 72° |
| 2026-04-22 17:00 | 62.36546 | -172.88543 | 34656 ft | 466 kts | 72° |
| 2026-04-22 17:01 | 62.39126 | -172.75495 | 34653 ft | 467 kts | 72° |
| 2026-04-22 17:01 | 62.41663 | -172.62585 | 34635 ft | 468 kts | 73° |
| 2026-04-22 17:02 | 62.44193 | -172.49630 | 34650 ft | 468 kts | 73° |
| 2026-04-22 17:02 | 62.46409 | -172.38211 | 34669 ft | 469 kts | 73° |
| 2026-04-22 17:03 | 62.48927 | -172.25155 | 34665 ft | 469 kts | 73° |
| 2026-04-22 17:03 | 62.51416 | -172.12164 | 34669 ft | 469 kts | 73° |
| 2026-04-22 17:04 | 62.53904 | -171.99097 | 34679 ft | 469 kts | 73° |
| 2026-04-22 17:04 | 62.56389 | -171.85961 | 34679 ft | 468 kts | 73° |
| 2026-04-22 17:05 | 62.58848 | -171.72687 | 34645 ft | 465 kts | 77° |
| 2026-04-22 17:05 | 62.60411 | -171.59216 | 34664 ft | 457 kts | 87° |
| 2026-04-22 17:06 | 62.61080 | -171.45538 | 34669 ft | 455 kts | 90° |
| 2026-04-22 17:06 | 62.61698 | -171.31747 | 34679 ft | 456 kts | 90° |
| 2026-04-22 17:07 | 62.62321 | -171.18053 | 34685 ft | 458 kts | 89° |
| 2026-04-22 17:07 | 62.62951 | -171.04263 | 34681 ft | 458 kts | 90° |
| 2026-04-22 17:08 | 62.63570 | -170.90485 | 34668 ft | 457 kts | 90° |
| 2026-04-22 17:08 | 62.64173 | -170.76739 | 34669 ft | 456 kts | 90° |
| 2026-04-22 17:09 | 62.64761 | -170.63000 | 34670 ft | 455 kts | 90° |
| 2026-04-22 17:09 | 62.65334 | -170.49270 | 34673 ft | 455 kts | 91° |
| 2026-04-22 17:10 | 62.65893 | -170.35577 | 34679 ft | 454 kts | 91° |
| 2026-04-22 17:10 | 62.66437 | -170.21909 | 34660 ft | 453 kts | 91° |
| 2026-04-22 17:11 | 62.66971 | -170.08151 | 34684 ft | 453 kts | 91° |
| 2026-04-22 17:11 | 62.67481 | -169.94649 | 34688 ft | 453 kts | 92° |
| 2026-04-22 17:12 | 62.68000 | -169.80549 | 34683 ft | 453 kts | 92° |
| 2026-04-22 17:12 | 62.68494 | -169.66764 | 34681 ft | 453 kts | 92° |
| 2026-04-22 17:13 | 62.68972 | -169.53039 | 34664 ft | 453 kts | 92° |
| 2026-04-22 17:13 | 62.69436 | -169.39358 | 34675 ft | 453 kts | 93° |
| 2026-04-22 17:14 | 62.69887 | -169.25654 | 34672 ft | 454 kts | 93° |
| 2026-04-22 17:14 | 62.70324 | -169.11933 | 34671 ft | 454 kts | 93° |
| 2026-04-22 17:15 | 62.70750 | -168.98164 | 34686 ft | 454 kts | 94° |
| 2026-04-22 17:15 | 62.71158 | -168.84507 | 34689 ft | 455 kts | 94° |
| 2026-04-22 17:16 | 62.71568 | -168.70418 | 34678 ft | 456 kts | 94° |
| 2026-04-22 17:16 | 62.71968 | -168.56586 | 34681 ft | 458 kts | 94° |
| 2026-04-22 17:17 | 62.72319 | -168.44942 | 34683 ft | 460 kts | 94° |
| 2026-04-22 17:17 | 62.72731 | -168.31056 | 34674 ft | 461 kts | 94° |
| 2026-04-22 17:18 | 62.73131 | -168.17020 | 34674 ft | 461 kts | 94° |
| 2026-04-22 17:18 | 62.73512 | -168.03064 | 34646 ft | 460 kts | 95° |
| 2026-04-22 17:19 | 62.74229 | -167.75159 | 34685 ft | 461 kts | 95° |
| 2026-04-22 17:20 | 62.74894 | -167.47104 | 34679 ft | 461 kts | 95° |
| 2026-04-22 17:21 | 62.75356 | -167.26062 | 34649 ft | 460 kts | 95° |
| 2026-04-22 17:22 | 62.75782 | -167.05222 | 34683 ft | 461 kts | 96° |
| 2026-04-22 17:23 | 62.76182 | -166.84079 | 34703 ft | 462 kts | 96° |
| 2026-04-22 17:23 | 62.76550 | -166.63020 | 34701 ft | 463 kts | 96° |
| 2026-04-22 17:24 | 62.76783 | -166.48668 | 34656 ft | 463 kts | 96° |
| 2026-04-22 17:24 | 62.76998 | -166.34521 | 34698 ft | 463 kts | 96° |
| 2026-04-22 17:25 | 62.77197 | -166.20320 | 34707 ft | 466 kts | 96° |
| 2026-04-22 17:25 | 62.77383 | -166.06080 | 34707 ft | 470 kts | 96° |
| 2026-04-22 17:26 | 62.77559 | -165.91549 | 34704 ft | 473 kts | 96° |
| 2026-04-22 17:26 | 62.77721 | -165.77174 | 34732 ft | 474 kts | 96° |
| 2026-04-22 17:27 | 62.77867 | -165.62756 | 34720 ft | 474 kts | 96° |
| 2026-04-22 17:27 | 62.77997 | -165.48323 | 34723 ft | 475 kts | 96° |
| 2026-04-22 17:28 | 62.78114 | -165.33778 | 34724 ft | 475 kts | 96° |
| 2026-04-22 17:28 | 62.78216 | -165.19324 | 34727 ft | 476 kts | 97° |
| 2026-04-22 17:29 | 62.78303 | -165.04889 | 34726 ft | 475 kts | 97° |
| 2026-04-22 17:29 | 62.78375 | -164.90452 | 34702 ft | 475 kts | 97° |
| 2026-04-22 17:30 | 62.78432 | -164.76013 | 34727 ft | 476 kts | 97° |
| 2026-04-22 17:30 | 62.78476 | -164.61560 | 34730 ft | 477 kts | 97° |
| 2026-04-22 17:31 | 62.78560 | -164.46928 | 34766 ft | 481 kts | 94° |
| 2026-04-22 17:31 | 62.79238 | -164.32391 | 34776 ft | 484 kts | 91° |
| 2026-04-22 17:32 | 62.79880 | -164.20049 | 34772 ft | 485 kts | 91° |
| 2026-04-22 17:32 | 62.80618 | -164.05289 | 34754 ft | 484 kts | 91° |
| 2026-04-22 17:33 | 62.81317 | -163.90527 | 34764 ft | 484 kts | 91° |
| 2026-04-22 17:33 | 62.81968 | -163.76260 | 34766 ft | 484 kts | 91° |
| 2026-04-22 17:34 | 62.82650 | -163.60921 | 34794 ft | 485 kts | 91° |
| 2026-04-22 17:34 | 62.83294 | -163.46112 | 34778 ft | 486 kts | 91° |
| 2026-04-22 17:35 | 62.83937 | -163.30962 | 34773 ft | 487 kts | 91° |
| 2026-04-22 17:35 | 62.84553 | -163.16083 | 34782 ft | 488 kts | 91° |
| 2026-04-22 17:36 | 62.85151 | -163.01250 | 34782 ft | 489 kts | 92° |
| 2026-04-22 17:36 | 62.85735 | -162.86380 | 34786 ft | 490 kts | 92° |
| 2026-04-22 17:37 | 62.86303 | -162.71486 | 34789 ft | 491 kts | 92° |
| 2026-04-22 17:37 | 62.86857 | -162.56572 | 34756 ft | 491 kts | 92° |
| 2026-04-22 17:38 | 62.87398 | -162.41564 | 34804 ft | 492 kts | 92° |
| 2026-04-22 17:38 | 62.87918 | -162.26663 | 34811 ft | 493 kts | 92° |
| 2026-04-22 17:39 | 62.88431 | -162.11538 | 34810 ft | 493 kts | 92° |
| 2026-04-22 17:40 | 62.89170 | -161.88826 | 34818 ft | 494 kts | 92° |
| 2026-04-22 17:40 | 62.89640 | -161.73744 | 34817 ft | 496 kts | 92° |
| 2026-04-22 17:41 | 62.90097 | -161.58525 | 34850 ft | 498 kts | 92° |
| 2026-04-22 17:41 | 62.90538 | -161.43331 | 34899 ft | 500 kts | 92° |
| 2026-04-22 17:42 | 62.90966 | -161.28047 | 34904 ft | 502 kts | 92° |
| 2026-04-22 17:42 | 62.91310 | -161.15248 | 34901 ft | 503 kts | 93° |
| 2026-04-22 17:43 | 62.91713 | -160.99718 | 34931 ft | 503 kts | 93° |
| 2026-04-22 17:43 | 62.92094 | -160.84386 | 34924 ft | 503 kts | 93° |
| 2026-04-22 17:44 | 62.92458 | -160.69053 | 34925 ft | 503 kts | 93° |
| 2026-04-22 17:44 | 62.92806 | -160.53692 | 34927 ft | 503 kts | 93° |
| 2026-04-22 17:45 | 62.93137 | -160.38313 | 34936 ft | 503 kts | 93° |
| 2026-04-22 17:45 | 62.93452 | -160.22967 | 34930 ft | 503 kts | 94° |
| 2026-04-22 17:46 | 62.93748 | -160.07626 | 34937 ft | 503 kts | 94° |
| 2026-04-22 17:46 | 62.94028 | -159.92258 | 34953 ft | 505 kts | 93° |
| 2026-04-22 17:47 | 62.94294 | -159.76789 | 34957 ft | 507 kts | 93° |
| 2026-04-22 17:47 | 62.94545 | -159.61142 | 34960 ft | 510 kts | 93° |
| 2026-04-22 17:48 | 62.94740 | -159.48182 | 34962 ft | 511 kts | 94° |
| 2026-04-22 17:48 | 62.94995 | -159.29904 | 34961 ft | 513 kts | 94° |
| 2026-04-22 17:49 | 62.95196 | -159.14219 | 34987 ft | 513 kts | 94° |
| 2026-04-22 17:49 | 62.95380 | -158.98562 | 34994 ft | 513 kts | 94° |
| 2026-04-22 17:50 | 62.95545 | -158.82869 | 34984 ft | 513 kts | 94° |
| 2026-04-22 17:50 | 62.95693 | -158.67216 | 34983 ft | 512 kts | 94° |
| 2026-04-22 17:51 | 62.95824 | -158.51465 | 34939 ft | 511 kts | 94° |
| 2026-04-22 17:51 | 62.95936 | -158.35864 | 34980 ft | 511 kts | 94° |
| 2026-04-22 17:52 | 62.96032 | -158.20258 | 34972 ft | 511 kts | 94° |
| 2026-04-22 17:52 | 62.96110 | -158.04527 | 34959 ft | 512 kts | 94° |
| 2026-04-22 17:53 | 62.96170 | -157.88861 | 34887 ft | 513 kts | 94° |
| 2026-04-22 17:53 | 62.96213 | -157.73150 | 34862 ft | 515 kts | 94° |
| 2026-04-22 17:54 | 62.96240 | -157.57388 | 34907 ft | 516 kts | 94° |
| 2026-04-22 17:54 | 62.96249 | -157.41580 | 34916 ft | 518 kts | 94° |
| 2026-04-22 17:55 | 62.96243 | -157.28299 | 34911 ft | 519 kts | 94° |
| 2026-04-22 17:55 | 62.96213 | -157.09828 | 34953 ft | 520 kts | 95° |
| 2026-04-22 17:56 | 62.96169 | -156.93944 | 34948 ft | 519 kts | 95° |
| 2026-04-22 17:56 | 62.96107 | -156.78038 | 35018 ft | 518 kts | 95° |
| 2026-04-22 17:57 | 62.96027 | -156.62201 | 35025 ft | 518 kts | 95° |
| 2026-04-22 17:57 | 62.95927 | -156.46321 | 35021 ft | 519 kts | 95° |
| 2026-04-22 17:58 | 62.95814 | -156.30468 | 35020 ft | 519 kts | 95° |
| 2026-04-22 17:58 | 62.95681 | -156.14698 | 35058 ft | 519 kts | 95° |
| 2026-04-22 17:59 | 62.95529 | -155.98748 | 35087 ft | 519 kts | 95° |
| 2026-04-22 17:59 | 62.95360 | -155.82866 | 35113 ft | 520 kts | 95° |
| 2026-04-22 18:00 | 62.95206 | -155.69476 | 35092 ft | 521 kts | 96° |
| 2026-04-22 18:00 | 62.94491 | -155.59239 | 35045 ft | 506 kts | 115° |
| 2026-04-22 18:00 | 62.92916 | -155.52343 | 35039 ft | 489 kts | 130° |
| 2026-04-22 18:01 | 62.89121 | -155.39730 | 35051 ft | 501 kts | 128° |
| 2026-04-22 18:01 | 62.85401 | -155.26692 | 35054 ft | 505 kts | 127° |
| 2026-04-22 18:02 | 62.81704 | -155.13557 | 35078 ft | 507 kts | 127° |
| 2026-04-22 18:02 | 62.78618 | -155.02649 | 35065 ft | 502 kts | 128° |
| 2026-04-22 18:03 | 62.74854 | -154.89464 | 35083 ft | 500 kts | 128° |
| 2026-04-22 18:03 | 62.71164 | -154.76647 | 35072 ft | 498 kts | 128° |
| 2026-04-22 18:04 | 62.67481 | -154.63925 | 35061 ft | 497 kts | 128° |
| 2026-04-22 18:04 | 62.63762 | -154.51149 | 35057 ft | 497 kts | 128° |
| 2026-04-22 18:05 | 62.60090 | -154.38604 | 35033 ft | 498 kts | 128° |
| 2026-04-22 18:05 | 62.56317 | -154.25782 | 35034 ft | 499 kts | 128° |
| 2026-04-22 18:06 | 62.52562 | -154.13094 | 35007 ft | 500 kts | 128° |
| 2026-04-22 18:06 | 62.48794 | -154.00433 | 35023 ft | 501 kts | 129° |
| 2026-04-22 18:07 | 62.44998 | -153.87746 | 35028 ft | 503 kts | 129° |
| 2026-04-22 18:07 | 62.41182 | -153.75065 | 35031 ft | 504 kts | 129° |
| 2026-04-22 18:08 | 62.37328 | -153.62326 | 35026 ft | 505 kts | 129° |
| 2026-04-22 18:08 | 62.33475 | -153.49672 | 35016 ft | 505 kts | 129° |
| 2026-04-22 18:09 | 62.29627 | -153.37088 | 35073 ft | 503 kts | 129° |
| 2026-04-22 18:09 | 62.25734 | -153.24411 | 35055 ft | 505 kts | 129° |
| 2026-04-22 18:09 | 62.23830 | -153.18252 | 34944 ft | 499 kts | 129° |
| 2026-04-22 18:10 | 62.21925 | -153.12091 | 34577 ft | 492 kts | 129° |
| 2026-04-22 18:10 | 62.20027 | -153.05982 | 33790 ft | 494 kts | 130° |
| 2026-04-22 18:10 | 62.18084 | -152.99757 | 32760 ft | 498 kts | 129° |
| 2026-04-22 18:10 | 62.16150 | -152.93573 | 31730 ft | 503 kts | 129° |
| 2026-04-22 18:11 | 62.14236 | -152.87134 | 30667 ft | 510 kts | 123° |
| 2026-04-22 18:11 | 62.12752 | -152.80180 | 29728 ft | 515 kts | 116° |
| 2026-04-22 18:11 | 62.11486 | -152.73046 | 29053 ft | 509 kts | 114° |
| 2026-04-22 18:11 | 62.10273 | -152.65894 | 28499 ft | 502 kts | 114° |
| 2026-04-22 18:12 | 62.09082 | -152.58944 | 27917 ft | 495 kts | 114° |
| 2026-04-22 18:12 | 62.07875 | -152.52113 | 27266 ft | 491 kts | 115° |
| 2026-04-22 18:12 | 62.07052 | -152.47576 | 26822 ft | 485 kts | 115° |
| 2026-04-22 18:12 | 62.05437 | -152.38850 | 25511 ft | 469 kts | 115° |
| 2026-04-22 18:13 | 62.04227 | -152.32445 | 24357 ft | 464 kts | 115° |
| 2026-04-22 18:13 | 62.03018 | -152.26102 | 23465 ft | 461 kts | 115° |
| 2026-04-22 18:13 | 62.01806 | -152.19736 | 22911 ft | 455 kts | 115° |
| 2026-04-22 18:13 | 62.00618 | -152.13521 | 22391 ft | 450 kts | 115° |
| 2026-04-22 18:14 | 61.99441 | -152.07386 | 21833 ft | 446 kts | 115° |
| 2026-04-22 18:14 | 61.98273 | -152.01300 | 21316 ft | 442 kts | 115° |
| 2026-04-22 18:14 | 61.97117 | -151.95294 | 20790 ft | 439 kts | 115° |
| 2026-04-22 18:14 | 61.95964 | -151.89313 | 20284 ft | 435 kts | 115° |
| 2026-04-22 18:15 | 61.94800 | -151.83297 | 19767 ft | 432 kts | 115° |
| 2026-04-22 18:15 | 61.93660 | -151.77416 | 19259 ft | 430 kts | 115° |
| 2026-04-22 18:15 | 61.92492 | -151.71409 | 18722 ft | 427 kts | 116° |
| 2026-04-22 18:15 | 61.91357 | -151.65595 | 18179 ft | 425 kts | 116° |
| 2026-04-22 18:16 | 61.90223 | -151.59803 | 17611 ft | 423 kts | 116° |
| 2026-04-22 18:16 | 61.89096 | -151.54057 | 17099 ft | 419 kts | 116° |
| 2026-04-22 18:16 | 61.87978 | -151.48376 | 16586 ft | 416 kts | 116° |
| 2026-04-22 18:16 | 61.86865 | -151.42734 | 16055 ft | 414 kts | 116° |
| 2026-04-22 18:17 | 61.85747 | -151.37085 | 15476 ft | 414 kts | 116° |
| 2026-04-22 18:17 | 61.84635 | -151.31488 | 14958 ft | 411 kts | 116° |
| 2026-04-22 18:17 | 61.83527 | -151.25916 | 14444 ft | 409 kts | 116° |
| 2026-04-22 18:17 | 61.82425 | -151.20391 | 13936 ft | 407 kts | 116° |
| 2026-04-22 18:18 | 61.81326 | -151.14897 | 13373 ft | 404 kts | 116° |
| 2026-04-22 18:18 | 61.80234 | -151.09447 | 12842 ft | 400 kts | 116° |
| 2026-04-22 18:18 | 61.79152 | -151.04060 | 12337 ft | 396 kts | 116° |
| 2026-04-22 18:18 | 61.78081 | -150.98745 | 11901 ft | 390 kts | 116° |
| 2026-04-22 18:19 | 61.77021 | -150.93504 | 11347 ft | 388 kts | 117° |
| 2026-04-22 18:19 | 61.75966 | -150.88309 | 10946 ft | 381 kts | 117° |
| 2026-04-22 18:19 | 61.74939 | -150.83252 | 10842 ft | 365 kts | 117° |
| 2026-04-22 18:19 | 61.73959 | -150.78435 | 10735 ft | 350 kts | 117° |
| 2026-04-22 18:20 | 61.73043 | -150.73927 | 10530 ft | 319 kts | 117° |
| 2026-04-22 18:20 | 61.72468 | -150.71102 | 10323 ft | 301 kts | 118° |
| 2026-04-22 18:20 | 61.71646 | -150.67096 | 10059 ft | 287 kts | 118° |
| 2026-04-22 18:20 | 61.70875 | -150.63353 | 10046 ft | 270 kts | 119° |
| 2026-04-22 18:21 | 61.70141 | -150.59790 | 9933 ft | 265 kts | 119° |
| 2026-04-22 18:21 | 61.69385 | -150.56151 | 9656 ft | 276 kts | 119° |
| 2026-04-22 18:21 | 61.68593 | -150.52334 | 9352 ft | 280 kts | 119° |
| 2026-04-22 18:21 | 61.67818 | -150.48585 | 9042 ft | 278 kts | 119° |
| 2026-04-22 18:22 | 61.66866 | -150.45228 | 8722 ft | 258 kts | 142° |
| 2026-04-22 18:22 | 61.65500 | -150.42915 | 8493 ft | 254 kts | 148° |
| 2026-04-22 18:22 | 61.64074 | -150.40546 | 8208 ft | 261 kts | 147° |
| 2026-04-22 18:22 | 61.62660 | -150.38144 | 7883 ft | 262 kts | 146° |
| 2026-04-22 18:23 | 61.61253 | -150.35745 | 7596 ft | 257 kts | 146° |
| 2026-04-22 18:23 | 61.59859 | -150.33370 | 7295 ft | 251 kts | 146° |
| 2026-04-22 18:23 | 61.58491 | -150.31044 | 7025 ft | 249 kts | 146° |
| 2026-04-22 18:24 | 61.55796 | -150.26473 | 6493 ft | 249 kts | 146° |
| 2026-04-22 18:24 | 61.54455 | -150.24206 | 6289 ft | 246 kts | 146° |
| 2026-04-22 18:24 | 61.51779 | -150.19741 | 5744 ft | 239 kts | 149° |
| 2026-04-22 18:25 | 61.50283 | -150.18384 | 5413 ft | 235 kts | 166° |
| 2026-04-22 18:25 | 61.48679 | -150.17513 | 5135 ft | 240 kts | 168° |
| 2026-04-22 18:25 | 61.47080 | -150.16723 | 4921 ft | 241 kts | 167° |
| 2026-04-22 18:26 | 61.43787 | -150.14919 | 4468 ft | 241 kts | 166° |
| 2026-04-22 18:26 | 61.42179 | -150.14006 | 4208 ft | 238 kts | 165° |
| 2026-04-22 18:26 | 61.40589 | -150.13100 | 3836 ft | 235 kts | 165° |
| 2026-04-22 18:26 | 61.39023 | -150.12209 | 3613 ft | 231 kts | 165° |
| 2026-04-22 18:27 | 61.37510 | -150.11350 | 3470 ft | 219 kts | 164° |
| 2026-04-22 18:27 | 61.36087 | -150.10544 | 3347 ft | 205 kts | 166° |
| 2026-04-22 18:27 | 61.34758 | -150.09790 | 3182 ft | 193 kts | 165° |
| 2026-04-22 18:27 | 61.33507 | -150.09078 | 3057 ft | 177 kts | 165° |
| 2026-04-22 18:28 | 61.32371 | -150.08435 | 2970 ft | 164 kts | 165° |
| 2026-04-22 18:28 | 61.31283 | -150.07821 | 2747 ft | 160 kts | 165° |
| 2026-04-22 18:28 | 61.30215 | -150.07218 | 2500 ft | 158 kts | 164° |
| 2026-04-22 18:28 | 61.29145 | -150.06613 | 2265 ft | 159 kts | 164° |
| 2026-04-22 18:29 | 61.28070 | -150.06007 | 2035 ft | 161 kts | 163° |
| 2026-04-22 18:29 | 61.27005 | -150.05407 | 1816 ft | 154 kts | 163° |
| 2026-04-22 18:29 | 61.26006 | -150.04844 | 1546 ft | 142 kts | 163° |
| 2026-04-22 18:29 | 61.25060 | -150.04310 | 1344 ft | 138 kts | 163° |
| 2026-04-22 18:30 | 61.24126 | -150.03785 | 1155 ft | 139 kts | 163° |
| 2026-04-22 18:30 | 61.22240 | -150.02725 | 737 ft | 141 kts | 163° |
| 2026-04-22 18:30 | 61.21286 | -150.02188 | 497 ft | 142 kts | 163° |
| 2026-04-22 18:31 | 61.20319 | -150.01645 | 298 ft | 144 kts | 164° |
| 2026-04-22 18:31 | 61.19347 | -150.01108 | 154 ft | 144 kts | 164° |
| 2026-04-22 18:31 | 61.18464 | -150.00607 | 128 ft | 112 kts | 165° |
| 2026-04-22 18:31 | 61.18014 | -150.00348 | 134 ft | 24 kts | 162° |
| 2026-04-22 18:32 | 61.17844 | -150.00132 | 132 ft | 17 kts | 134° |
| 2026-04-22 18:32 | 61.17795 | -150.00013 | 142 ft | 10 kts | 109° |
| 2026-04-22 18:32 | 61.17836 | -149.99917 | 141 ft | 10 kts | 4° |
| 2026-04-22 18:32 | 61.17908 | -149.99947 | 141 ft | 11 kts | 344° |
| 2026-04-22 18:33 | 61.17988 | -149.99993 | 144 ft | 13 kts | 345° |
| 2026-04-22 18:33 | 61.18087 | -150.00048 | 145 ft | 15 kts | 345° |
| 2026-04-22 18:33 | 61.18195 | -150.00108 | 137 ft | 17 kts | 345° |
| 2026-04-22 18:33 | 61.18315 | -150.00175 | 138 ft | 19 kts | 345° |
| 2026-04-22 18:34 | 61.18446 | -150.00248 | 138 ft | 20 kts | 344° |
| 2026-04-22 18:34 | 61.18585 | -150.00326 | 138 ft | 21 kts | 345° |
| 2026-04-22 18:34 | 61.18678 | -150.00378 | 138 ft | 21 kts | 345° |
| 2026-04-22 18:34 | 61.18819 | -150.00458 | 138 ft | 21 kts | 345° |
| 2026-04-22 18:35 | 61.18962 | -150.00538 | 138 ft | 21 kts | 345° |
| 2026-04-22 18:35 | 61.19084 | -150.00600 | 138 ft | 13 kts | 358° |
| 2026-04-22 18:35 | 61.19136 | -150.00464 | 138 ft | 13 kts | 73° |
| 2026-04-22 18:35 | 61.19160 | -150.00281 | 138 ft | 13 kts | 75° |
| 2026-04-22 18:36 | 61.19183 | -150.00099 | 137 ft | 13 kts | 75° |
| 2026-04-22 18:36 | 61.19207 | -149.99916 | 141 ft | 13 kts | 72° |
| 2026-04-22 18:36 | 61.19232 | -149.99747 | 140 ft | 8 kts | 77° |
| 2026-04-22 18:36 | 61.19192 | -149.99671 | 140 ft | 9 kts | 163° |
| 2026-04-22 18:37 | 61.19161 | -149.99653 | 140 ft | 4 kts | 164° |
| 2026-04-22 18:37 | 61.19152 | -149.99648 | 140 ft | 0 kts | 164° |